createdAt,value
2022-10-28T00:00:35.521Z,9.278132
2022-10-28T00:01:35.639Z,9.278203
2022-10-28T00:02:35.489Z,9.278259
2022-10-28T00:03:35.462Z,9.278284
2022-10-28T00:04:35.391Z,9.278261
2022-10-28T00:05:35.343Z,9.278206
2022-10-28T00:06:35.450Z,9.278325
2022-10-28T00:07:35.363Z,9.278193
2022-10-28T00:08:35.280Z,9.278196
2022-10-28T00:09:35.300Z,9.278179
2022-10-28T00:10:35.257Z,9.278159
2022-10-28T00:11:35.299Z,9.278240
2022-10-28T00:12:35.276Z,9.278280
2022-10-28T00:13:35.240Z,9.278271
2022-10-28T00:14:35.211Z,9.278307
2022-10-28T00:15:35.317Z,9.278246
2022-10-28T00:16:35.275Z,9.278259
2022-10-28T00:17:35.138Z,9.278275
2022-10-28T00:18:35.234Z,9.278287
2022-10-28T00:19:35.169Z,9.278219
2022-10-28T00:20:35.226Z,9.278295
2022-10-28T00:21:35.247Z,9.278347
2022-10-28T00:22:35.134Z,9.278271
2022-10-28T00:23:35.089Z,9.278187
2022-10-28T00:24:35.064Z,9.278152
2022-10-28T00:25:35.063Z,9.278217
2022-10-28T00:26:35.047Z,9.278219
2022-10-28T00:27:35.048Z,9.278230
2022-10-28T00:28:34.972Z,9.278282
2022-10-28T00:29:34.989Z,9.278216
2022-10-28T00:30:35.043Z,9.278255
2022-10-28T00:31:35.982Z,9.278342
2022-10-28T00:32:34.932Z,9.278278
2022-10-28T00:33:34.969Z,9.278292
2022-10-28T00:34:34.867Z,9.278214
2022-10-28T00:35:34.823Z,9.278232
2022-10-28T00:36:34.904Z,9.278177
2022-10-28T00:37:34.783Z,9.278169
2022-10-28T00:38:34.771Z,9.278241
2022-10-28T00:39:34.742Z,9.278236
2022-10-28T00:40:34.737Z,9.278267
2022-10-28T00:41:34.784Z,9.278343
2022-10-28T00:42:34.697Z,9.278280
2022-10-28T00:43:34.679Z,9.278244
2022-10-28T00:44:34.657Z,9.278232
2022-10-28T00:45:34.652Z,9.278226
2022-10-28T00:46:34.656Z,9.278291
2022-10-28T00:47:34.653Z,9.278259
2022-10-28T00:48:34.604Z,9.278281
2022-10-28T00:49:34.580Z,9.278327
2022-10-28T00:50:34.566Z,9.278292
2022-10-28T00:51:34.575Z,9.278270
2022-10-28T00:52:34.564Z,9.278318
2022-10-28T00:53:34.514Z,9.278321
2022-10-28T00:54:34.490Z,9.278336
2022-10-28T00:55:34.479Z,9.278325
2022-10-28T00:56:34.505Z,9.278327
2022-10-28T00:57:34.455Z,9.278385
2022-10-28T00:58:34.429Z,9.278311
2022-10-28T00:59:34.431Z,9.278371
2022-10-28T01:00:34.390Z,9.278373
2022-10-28T01:01:34.546Z,9.278383
2022-10-28T01:02:34.432Z,9.278354
2022-10-28T01:03:34.348Z,9.278223
2022-10-28T01:04:34.330Z,9.278285
2022-10-28T01:05:34.310Z,9.278263
2022-10-28T01:06:34.332Z,9.278272
2022-10-28T01:07:34.291Z,9.278358
2022-10-28T01:08:34.279Z,9.278354
2022-10-28T01:09:34.243Z,9.278383
2022-10-28T01:10:34.248Z,9.278352
2022-10-28T01:11:34.253Z,9.278332
2022-10-28T01:12:34.229Z,9.278350
2022-10-28T01:13:34.180Z,9.278337
2022-10-28T01:14:34.173Z,9.278253
2022-10-28T01:15:34.167Z,9.278298
2022-10-28T01:16:34.135Z,9.278312
2022-10-28T01:17:34.145Z,9.278279
2022-10-28T01:18:34.098Z,9.278245
2022-10-28T01:19:34.093Z,9.278195
2022-10-28T01:20:37.699Z,9.278205
2022-10-28T01:21:35.058Z,9.278262
2022-10-28T01:22:34.136Z,9.278205
2022-10-28T01:23:34.028Z,9.278255
2022-10-28T01:24:34.002Z,9.278211
2022-10-28T01:25:33.988Z,9.278201
2022-10-28T01:26:33.973Z,9.278229
2022-10-28T01:27:33.983Z,9.278251
2022-10-28T01:28:33.936Z,9.278215
2022-10-28T01:29:33.925Z,9.278231
2022-10-28T01:30:33.896Z,9.278234
2022-10-28T01:31:33.882Z,9.278276
2022-10-28T01:32:33.914Z,9.278251
2022-10-28T01:33:33.846Z,9.278294
2022-10-28T01:34:33.863Z,9.278326
2022-10-28T01:35:33.815Z,9.278255
2022-10-28T01:36:33.830Z,9.278296
2022-10-28T01:37:33.790Z,9.278379
2022-10-28T01:38:33.773Z,9.278496
2022-10-28T01:39:33.750Z,9.278462
2022-10-28T01:40:33.743Z,9.278454
2022-10-28T01:41:33.746Z,9.278303
2022-10-28T01:42:33.715Z,9.278305
2022-10-28T01:43:33.707Z,9.278218
2022-10-28T01:44:33.669Z,9.278118
2022-10-28T01:45:33.672Z,9.278333
2022-10-28T01:46:33.674Z,9.278270
2022-10-28T01:47:33.633Z,9.278187
2022-10-28T01:48:33.654Z,9.278190
2022-10-28T01:49:33.594Z,9.278043
2022-10-28T01:50:33.599Z,9.278315
2022-10-28T01:51:33.595Z,9.278481
2022-10-28T01:52:33.541Z,9.278407
2022-10-28T01:53:33.552Z,9.278206
2022-10-28T01:54:33.533Z,9.278214
2022-10-28T01:55:33.504Z,9.278274
2022-10-28T01:56:33.519Z,9.278064
2022-10-28T01:57:33.462Z,9.277954
2022-10-28T01:58:33.454Z,9.278123
2022-10-28T01:59:33.428Z,9.278226
2022-10-28T02:00:33.549Z,9.278270
2022-10-28T02:01:33.582Z,9.278303
2022-10-28T02:02:33.374Z,9.277987
2022-10-28T02:03:33.372Z,9.277976
2022-10-28T02:04:33.363Z,9.278194
2022-10-28T02:05:33.354Z,9.278125
2022-10-28T02:06:33.363Z,9.278186
2022-10-28T02:07:33.303Z,9.278031
2022-10-28T02:08:33.349Z,9.278100
2022-10-28T02:09:33.345Z,9.278052
2022-10-28T02:10:33.255Z,9.277993
2022-10-28T02:11:33.276Z,9.277865
2022-10-28T02:12:33.206Z,9.277661
2022-10-28T02:13:33.196Z,9.277746
2022-10-28T02:14:33.175Z,9.277917
2022-10-28T02:15:33.154Z,9.277959
2022-10-28T02:16:33.172Z,9.277997
2022-10-28T02:17:33.123Z,9.278282
2022-10-28T02:18:33.139Z,9.278159
2022-10-28T02:19:33.089Z,9.278461
2022-10-28T02:20:33.082Z,9.278341
2022-10-28T02:21:33.096Z,9.278319
2022-10-28T02:22:33.051Z,9.278424
2022-10-28T02:23:33.067Z,9.278440
2022-10-28T02:24:33.010Z,9.278415
2022-10-28T02:25:33.010Z,9.278359
2022-10-28T02:26:33.029Z,9.278316
2022-10-28T02:27:32.980Z,9.278429
2022-10-28T02:28:32.949Z,9.278350
2022-10-28T02:29:32.945Z,9.278380
2022-10-28T02:30:32.927Z,9.278473
2022-10-28T02:31:32.968Z,9.278414
2022-10-28T02:32:32.888Z,9.278405
2022-10-28T02:33:32.886Z,9.278398
2022-10-28T02:34:32.858Z,9.278371
2022-10-28T02:35:32.847Z,9.278384
2022-10-28T02:36:32.839Z,9.278386
2022-10-28T02:37:32.815Z,9.278378
2022-10-28T02:38:32.780Z,9.278292
2022-10-28T02:39:33.761Z,9.278432
2022-10-28T02:40:32.759Z,9.278514
2022-10-28T02:41:32.772Z,9.278449
2022-10-28T02:42:32.757Z,9.278470
2022-10-28T02:43:32.692Z,9.278492
2022-10-28T02:44:32.694Z,9.278416
2022-10-28T02:45:32.672Z,9.278456
2022-10-28T02:46:32.686Z,9.278438
2022-10-28T02:47:32.624Z,9.278448
2022-10-28T02:48:32.613Z,9.278491
2022-10-28T02:49:32.595Z,9.278489
2022-10-28T02:50:32.602Z,9.278530
2022-10-28T02:51:32.601Z,9.278419
2022-10-28T02:52:32.552Z,9.278498
2022-10-28T02:53:32.536Z,9.278464
2022-10-28T02:54:32.554Z,9.278521
2022-10-28T02:55:32.491Z,9.278707
2022-10-28T02:56:32.520Z,9.278715
2022-10-28T02:57:32.469Z,9.278423
2022-10-28T02:58:32.444Z,9.278393
2022-10-28T02:59:32.438Z,9.278512
2022-10-28T03:00:32.404Z,9.278399
2022-10-28T03:01:32.579Z,9.278245
2022-10-28T03:02:32.385Z,9.278126
2022-10-28T03:03:32.365Z,9.278302
2022-10-28T03:04:32.371Z,9.278333
2022-10-28T03:05:32.329Z,9.278451
2022-10-28T03:06:32.344Z,9.278354
2022-10-28T03:07:32.300Z,9.278400
2022-10-28T03:08:32.302Z,9.278341
2022-10-28T03:09:32.260Z,9.278475
2022-10-28T03:10:32.263Z,9.278374
2022-10-28T03:11:32.264Z,9.278388
2022-10-28T03:12:32.212Z,9.278458
2022-10-28T03:13:32.189Z,9.278260
2022-10-28T03:14:32.227Z,9.278277
2022-10-28T03:15:32.245Z,9.278367
2022-10-28T03:16:32.302Z,9.278242
2022-10-28T03:17:32.129Z,9.278261
2022-10-28T03:18:32.108Z,9.278259
2022-10-28T03:19:32.114Z,9.278180
2022-10-28T03:20:32.082Z,9.278325
2022-10-28T03:21:32.089Z,9.278275
2022-10-28T03:22:32.044Z,9.278357
2022-10-28T03:23:32.034Z,9.278408
2022-10-28T03:24:32.021Z,9.278290
2022-10-28T03:25:32.024Z,9.278356
2022-10-28T03:26:32.014Z,9.278404
2022-10-28T03:27:31.964Z,9.278433
2022-10-28T03:28:31.949Z,9.278489
2022-10-28T03:29:31.946Z,9.278420
2022-10-28T03:30:31.908Z,9.278444
2022-10-28T03:31:31.942Z,9.278446
2022-10-28T03:32:31.886Z,9.278509
2022-10-28T03:33:31.859Z,9.278595
2022-10-28T03:34:31.869Z,9.278484
2022-10-28T03:35:31.834Z,9.278487
2022-10-28T03:36:31.840Z,9.278602
2022-10-28T03:37:31.835Z,9.278379
2022-10-28T03:38:31.781Z,9.278352
2022-10-28T03:39:31.762Z,9.278188
2022-10-28T03:40:31.745Z,9.278651
2022-10-28T03:41:31.761Z,9.278463
2022-10-28T03:42:31.708Z,9.278406
2022-10-28T03:43:31.717Z,9.278465
2022-10-28T03:44:31.691Z,9.278485
2022-10-28T03:45:31.680Z,9.278543
2022-10-28T03:46:35.064Z,9.278329
2022-10-28T03:47:31.656Z,9.278275
2022-10-28T03:48:31.618Z,9.278265
2022-10-28T03:49:31.612Z,9.277899
2022-10-28T03:50:31.585Z,9.278191
2022-10-28T03:51:31.594Z,9.278182
2022-10-28T03:52:31.543Z,9.278302
2022-10-28T03:53:31.689Z,9.278328
2022-10-28T03:54:31.501Z,9.278276
2022-10-28T03:55:31.488Z,9.278250
2022-10-28T03:56:31.510Z,9.278378
2022-10-28T03:57:31.457Z,9.278294
2022-10-28T03:58:31.510Z,9.278269
2022-10-28T04:00:03.822Z,9.278076
2022-10-28T04:00:31.408Z,9.278311
2022-10-28T04:01:31.494Z,9.278320
2022-10-28T04:02:31.426Z,9.278294
2022-10-28T04:03:31.364Z,9.278241
2022-10-28T04:04:31.350Z,9.278235
2022-10-28T04:05:31.351Z,9.278316
2022-10-28T04:06:31.355Z,9.278216
2022-10-28T04:07:31.291Z,9.278498
2022-10-28T04:08:31.294Z,9.278526
2022-10-28T04:09:31.263Z,9.278515
2022-10-28T04:10:31.263Z,9.278359
2022-10-28T04:11:31.277Z,9.278456
2022-10-28T04:12:31.217Z,9.278539
2022-10-28T04:13:31.205Z,9.278347
2022-10-28T04:14:31.187Z,9.278310
2022-10-28T04:15:31.162Z,9.278318
2022-10-28T04:16:31.197Z,9.278348
2022-10-28T04:17:31.141Z,9.278349
2022-10-28T04:18:31.117Z,9.278289
2022-10-28T04:19:31.216Z,9.278243
2022-10-28T04:20:31.073Z,9.278267
2022-10-28T04:21:31.100Z,9.278273
2022-10-28T04:22:31.057Z,9.278316
2022-10-28T04:23:31.037Z,9.278341
2022-10-28T04:24:31.012Z,9.278403
2022-10-28T04:25:31.001Z,9.278477
2022-10-28T04:26:31.008Z,9.278482
2022-10-28T04:27:30.995Z,9.278474
2022-10-28T04:28:30.959Z,9.278420
2022-10-28T04:29:30.949Z,9.278428
2022-10-28T04:30:30.927Z,9.278383
2022-10-28T04:31:30.897Z,9.278526
2022-10-28T04:32:30.921Z,9.278322
2022-10-28T04:33:30.899Z,9.278379
2022-10-28T04:34:30.862Z,9.277991
2022-10-28T04:35:30.824Z,9.278189
2022-10-28T04:36:31.809Z,9.278236
2022-10-28T04:37:30.829Z,9.278158
2022-10-28T04:38:30.789Z,9.278241
2022-10-28T04:39:30.767Z,9.278299
2022-10-28T04:40:30.754Z,9.278291
2022-10-28T04:41:30.748Z,9.278200
2022-10-28T04:42:30.768Z,9.278186
2022-10-28T04:43:30.710Z,9.278252
2022-10-28T04:44:30.679Z,9.278193
2022-10-28T04:45:30.664Z,9.278179
2022-10-28T04:46:30.650Z,9.278257
2022-10-28T04:47:30.657Z,9.278220
2022-10-28T04:48:30.613Z,9.278344
2022-10-28T04:49:32.375Z,9.278315
2022-10-28T04:50:30.573Z,9.278330
2022-10-28T04:51:30.562Z,9.278236
2022-10-28T04:52:30.595Z,9.278266
2022-10-28T04:53:30.525Z,9.278308
2022-10-28T04:54:30.512Z,9.278319
2022-10-28T04:55:30.490Z,9.278308
2022-10-28T04:56:30.493Z,9.278292
2022-10-28T04:57:30.502Z,9.278299
2022-10-28T04:58:30.460Z,9.278301
2022-10-28T04:59:30.521Z,9.278268
2022-10-28T05:00:30.543Z,9.278276
2022-10-28T05:01:30.531Z,9.278287
2022-10-28T05:02:30.687Z,9.278235
2022-10-28T05:03:30.371Z,9.278222
2022-10-28T05:04:30.353Z,9.278215
2022-10-28T05:05:30.329Z,9.278238
2022-10-28T05:06:30.314Z,9.278283
2022-10-28T05:07:30.330Z,9.278298
2022-10-28T05:08:30.281Z,9.278273
2022-10-28T05:09:30.259Z,9.278298
2022-10-28T05:10:30.244Z,9.278311
2022-10-28T05:11:30.240Z,9.278370
2022-10-28T05:12:30.373Z,9.278360
2022-10-28T05:13:30.282Z,9.278324
2022-10-28T05:14:30.177Z,9.278315
2022-10-28T05:15:30.171Z,9.278309
2022-10-28T05:16:30.144Z,9.278325
2022-10-28T05:17:30.184Z,9.278330
2022-10-28T05:18:30.134Z,9.278248
2022-10-28T05:19:30.094Z,9.278280
2022-10-28T05:20:30.070Z,9.278305
2022-10-28T05:21:30.059Z,9.278348
2022-10-28T05:22:30.101Z,9.278308
2022-10-28T05:23:31.030Z,9.278275
2022-10-28T05:24:31.008Z,9.278269
2022-10-28T05:25:30.002Z,9.278371
2022-10-28T05:26:29.996Z,9.278304
2022-10-28T05:27:29.992Z,9.278354
2022-10-28T05:28:29.962Z,9.278255
2022-10-28T05:29:33.275Z,9.278346
2022-10-28T05:30:30.931Z,9.278338
2022-10-28T05:31:29.889Z,9.278326
2022-10-28T05:32:29.920Z,9.278371
2022-10-28T05:33:29.854Z,9.278346
2022-10-28T05:34:29.843Z,9.278309
2022-10-28T05:35:29.914Z,9.278295
2022-10-28T05:36:29.813Z,9.278477
2022-10-28T05:37:29.823Z,9.278456
2022-10-28T05:38:29.804Z,9.278347
2022-10-28T05:39:29.782Z,9.278300
2022-10-28T05:40:29.838Z,9.278275
2022-10-28T05:41:29.728Z,9.278399
2022-10-28T05:42:29.740Z,9.278303
2022-10-28T05:43:29.694Z,9.278471
2022-10-28T05:44:29.669Z,9.278037
2022-10-28T05:46:29.731Z,9.277916
2022-10-28T05:47:29.650Z,9.278230
2022-10-28T05:48:29.624Z,9.278325
2022-10-28T05:49:29.592Z,9.278416
2022-10-28T05:50:29.624Z,9.278226
2022-10-28T05:51:29.546Z,9.278275
2022-10-28T05:52:29.558Z,9.278437
2022-10-28T05:53:29.513Z,9.278435
2022-10-28T05:54:29.521Z,9.278382
2022-10-28T05:55:29.500Z,9.278394
2022-10-28T05:56:29.524Z,9.278381
2022-10-28T05:57:29.484Z,9.278324
2022-10-28T05:58:29.443Z,9.278332
2022-10-28T05:59:29.442Z,9.278367
2022-10-28T06:00:29.403Z,9.278394
2022-10-28T06:01:29.451Z,9.278297
2022-10-28T06:02:29.423Z,9.278219
2022-10-28T06:03:31.250Z,9.278337
2022-10-28T06:04:29.344Z,9.278365
2022-10-28T06:05:29.330Z,9.278448
2022-10-28T06:06:29.302Z,9.278363
2022-10-28T06:07:29.311Z,9.278446
2022-10-28T06:08:29.296Z,9.278271
2022-10-28T06:09:29.266Z,9.278345
2022-10-28T06:10:29.245Z,9.278369
2022-10-28T06:11:27.689Z,9.278365
2022-10-28T06:12:27.761Z,9.278327
2022-10-28T06:13:27.737Z,9.278401
2022-10-28T06:14:27.668Z,9.278421
2022-10-28T06:15:27.670Z,9.278397
2022-10-28T06:16:28.609Z,9.278294
2022-10-28T06:17:27.635Z,9.278384
2022-10-28T06:18:27.571Z,9.278418
2022-10-28T06:19:27.569Z,9.278346
2022-10-28T06:20:27.614Z,9.278234
2022-10-28T06:21:28.543Z,9.278330
2022-10-28T06:22:27.547Z,9.278442
2022-10-28T06:23:27.494Z,9.278389
2022-10-28T06:24:27.492Z,9.278284
2022-10-28T06:25:27.717Z,9.278226
2022-10-28T06:26:28.454Z,9.278156
2022-10-28T06:27:27.464Z,9.278246
2022-10-28T06:28:27.416Z,9.278312
2022-10-28T06:29:27.393Z,9.278267
2022-10-28T06:30:27.388Z,9.278257
2022-10-28T06:31:27.405Z,9.278325
2022-10-28T06:32:27.407Z,9.278316
2022-10-28T06:33:27.350Z,9.278418
2022-10-28T06:34:27.330Z,9.278332
2022-10-28T06:35:27.311Z,9.278248
2022-10-28T06:36:27.337Z,9.278207
2022-10-28T06:37:27.297Z,9.278336
2022-10-28T06:38:27.283Z,9.278272
2022-10-28T06:39:27.424Z,9.278291
2022-10-28T06:40:27.453Z,9.278258
2022-10-28T06:41:27.315Z,9.278316
2022-10-28T06:42:27.262Z,9.278348
2022-10-28T06:43:27.198Z,9.278334
2022-10-28T06:44:27.297Z,9.278378
2022-10-28T06:45:27.153Z,9.278346
2022-10-28T06:46:27.142Z,9.278350
2022-10-28T06:47:28.686Z,9.278326
2022-10-28T06:48:28.650Z,9.278371
2022-10-28T06:49:28.613Z,9.278357
2022-10-28T06:50:28.597Z,9.278421
2022-10-28T06:51:28.614Z,9.278393
2022-10-28T06:52:28.594Z,9.278405
2022-10-28T06:53:28.554Z,9.278330
2022-10-28T06:54:28.598Z,9.278316
2022-10-28T06:55:28.543Z,9.278243
2022-10-28T06:56:28.491Z,9.278270
2022-10-28T06:57:29.363Z,9.278220
2022-10-28T06:58:29.511Z,9.278145
2022-10-28T06:59:28.471Z,9.278215
2022-10-28T07:00:28.584Z,9.278286
2022-10-28T07:01:28.559Z,9.278260
2022-10-28T07:02:28.592Z,9.278283
2022-10-28T07:03:28.391Z,9.278302
2022-10-28T07:04:28.422Z,9.278294
2022-10-28T07:05:28.371Z,9.278304
2022-10-28T07:06:28.439Z,9.278263
2022-10-28T07:07:28.420Z,9.278316
2022-10-28T07:08:28.366Z,9.278380
2022-10-28T07:09:28.286Z,9.278281
2022-10-28T07:10:28.272Z,9.278349
2022-10-28T07:11:28.249Z,9.278302
2022-10-28T07:12:28.263Z,9.278313
2022-10-28T07:13:28.279Z,9.278337
2022-10-28T07:14:28.214Z,9.278251
2022-10-28T07:15:28.182Z,9.278285
2022-10-28T07:16:28.173Z,9.278363
2022-10-28T07:17:28.406Z,9.278298
2022-10-28T07:18:28.379Z,9.278304
2022-10-28T07:19:28.378Z,9.278337
2022-10-28T07:20:29.313Z,9.278314
2022-10-28T07:21:28.395Z,9.278256
2022-10-28T07:22:28.376Z,9.278316
2022-10-28T07:23:28.336Z,9.278399
2022-10-28T07:25:29.228Z,9.278265
2022-10-28T07:26:28.283Z,9.278311
2022-10-28T07:27:28.145Z,9.278349
2022-10-28T07:28:28.136Z,9.278273
2022-10-28T07:29:28.104Z,9.278156
2022-10-28T07:30:27.977Z,9.278243
2022-10-28T07:31:27.944Z,9.278366
2022-10-28T07:32:27.945Z,9.278417
2022-10-28T07:33:27.893Z,9.278502
2022-10-28T07:34:27.889Z,9.278372
2022-10-28T07:35:27.974Z,9.278440
2022-10-28T07:36:27.951Z,9.278114
2022-10-28T07:37:27.872Z,9.278157
2022-10-28T07:38:27.823Z,9.278275
2022-10-28T07:39:27.847Z,9.278275
2022-10-28T07:40:27.791Z,9.278341
2022-10-28T07:41:27.784Z,9.278332
2022-10-28T07:42:28.635Z,9.278275
2022-10-28T07:43:27.753Z,9.278285
2022-10-28T07:44:27.900Z,9.278235
2022-10-28T07:45:27.720Z,9.278262
2022-10-28T07:46:27.709Z,9.278332
2022-10-28T07:47:27.706Z,9.278314
2022-10-28T07:48:27.667Z,9.278298
2022-10-28T07:49:27.645Z,9.278177
2022-10-28T07:50:27.642Z,9.278165
2022-10-28T07:51:27.617Z,9.278155
2022-10-28T07:52:27.640Z,9.278227
2022-10-28T07:53:28.793Z,9.278270
2022-10-28T07:54:28.580Z,9.278302
2022-10-28T07:55:27.551Z,9.278272
2022-10-28T07:56:27.537Z,9.278278
2022-10-28T07:57:27.579Z,9.278193
2022-10-28T07:58:27.571Z,9.278384
2022-10-28T07:59:27.492Z,9.278187
2022-10-28T08:00:27.467Z,9.278252
2022-10-28T08:01:27.648Z,9.278228
2022-10-28T08:02:27.534Z,9.278175
2022-10-28T08:03:31.346Z,9.278212
2022-10-28T08:04:29.418Z,9.278196
2022-10-28T08:05:27.473Z,9.278378
2022-10-28T08:06:27.380Z,9.278268
2022-10-28T08:07:27.389Z,9.278263
2022-10-28T08:08:27.334Z,9.278326
2022-10-28T08:09:27.321Z,9.278446
2022-10-28T08:10:27.296Z,9.278259
2022-10-28T08:11:27.464Z,9.278177
2022-10-28T08:12:27.317Z,9.278143
2022-10-28T08:13:27.568Z,9.278209
2022-10-28T08:14:27.229Z,9.278239
2022-10-28T08:15:27.271Z,9.278328
2022-10-28T08:16:27.376Z,9.278420
2022-10-28T08:17:27.197Z,9.278326
2022-10-28T08:18:27.194Z,9.278265
2022-10-28T08:19:27.144Z,9.278067
2022-10-28T08:20:27.150Z,9.278191
2022-10-28T08:21:27.203Z,9.278242
2022-10-28T08:22:27.108Z,9.278262
2022-10-28T08:23:27.165Z,9.278386
2022-10-28T08:24:27.069Z,9.278199
2022-10-28T08:25:27.049Z,9.278250
2022-10-28T08:26:27.029Z,9.278259
2022-10-28T08:27:27.034Z,9.278194
2022-10-28T08:28:27.044Z,9.278314
2022-10-28T08:29:29.968Z,9.278226
2022-10-28T08:30:27.027Z,9.278198
2022-10-28T08:31:26.972Z,9.278163
2022-10-28T08:32:26.947Z,9.278315
2022-10-28T08:33:26.980Z,9.278308
2022-10-28T08:34:26.930Z,9.278233
2022-10-28T08:35:26.918Z,9.278253
2022-10-28T08:36:26.897Z,9.278164
2022-10-28T08:37:26.914Z,9.278157
2022-10-28T08:38:26.900Z,9.278324
2022-10-28T08:39:26.863Z,9.278318
2022-10-28T08:40:26.831Z,9.278256
2022-10-28T08:41:26.825Z,9.278288
2022-10-28T08:42:26.794Z,9.278273
2022-10-28T08:43:40.224Z,9.278391
2022-10-28T08:44:28.761Z,9.278315
2022-10-28T08:45:26.751Z,9.278127
2022-10-28T08:46:26.741Z,9.278050
2022-10-28T08:47:26.738Z,9.278234
2022-10-28T08:48:26.793Z,9.278465
2022-10-28T08:49:26.690Z,9.278395
2022-10-28T08:50:26.684Z,9.278416
2022-10-28T08:51:26.695Z,9.278324
2022-10-28T08:52:26.712Z,9.278288
2022-10-28T08:53:26.662Z,9.278289
2022-10-28T08:54:26.628Z,9.278323
2022-10-28T08:55:26.611Z,9.278174
2022-10-28T08:56:26.626Z,9.278246
2022-10-28T08:57:26.583Z,9.278114
2022-10-28T08:58:26.589Z,9.278217
2022-10-28T08:59:26.558Z,9.278270
2022-10-28T09:00:26.555Z,9.278238
2022-10-28T09:01:26.759Z,9.278226
2022-10-28T09:02:26.505Z,9.278255
2022-10-28T09:03:26.518Z,9.278343
2022-10-28T09:04:26.490Z,9.278143
2022-10-28T09:05:26.455Z,9.278180
2022-10-28T09:06:26.441Z,9.278329
2022-10-28T09:07:26.420Z,9.278392
2022-10-28T09:08:26.478Z,9.278496
2022-10-28T09:09:26.408Z,9.278646
2022-10-28T09:10:26.381Z,9.278462
2022-10-28T09:11:27.428Z,9.278562
2022-10-28T09:12:27.355Z,9.278427
2022-10-28T09:13:26.388Z,9.278267
2022-10-28T09:14:26.361Z,9.278334
2022-10-28T09:15:26.341Z,9.278303
2022-10-28T09:16:26.305Z,9.278136
2022-10-28T09:17:26.281Z,9.278152
2022-10-28T09:18:26.325Z,9.278205
2022-10-28T09:19:26.270Z,9.278303
2022-10-28T09:20:26.240Z,9.278271
2022-10-28T09:21:26.235Z,9.278311
2022-10-28T09:22:26.244Z,9.278205
2022-10-28T09:23:26.319Z,9.278284
2022-10-28T09:24:28.139Z,9.278146
2022-10-28T09:25:26.159Z,9.278285
2022-10-28T09:26:26.178Z,9.278111
2022-10-28T09:27:26.170Z,9.277999
2022-10-28T09:28:26.143Z,9.278073
2022-10-28T09:29:26.137Z,9.278188
2022-10-28T09:30:26.101Z,9.278343
2022-10-28T09:31:26.074Z,9.278233
2022-10-28T09:32:26.102Z,9.278153
2022-10-28T09:33:26.052Z,9.278207
2022-10-28T09:34:26.036Z,9.278216
2022-10-28T09:35:26.046Z,9.278192
2022-10-28T09:36:26.035Z,9.278149
2022-10-28T09:37:26.021Z,9.278172
2022-10-28T09:38:25.990Z,9.278241
2022-10-28T09:39:27.841Z,9.278234
2022-10-28T09:40:25.985Z,9.278098
2022-10-28T09:41:26.165Z,9.278206
2022-10-28T09:42:25.921Z,9.278160
2022-10-28T09:43:25.941Z,9.278291
2022-10-28T09:44:25.898Z,9.278309
2022-10-28T09:45:25.900Z,9.278157
2022-10-28T09:46:25.865Z,9.278085
2022-10-28T09:47:25.868Z,9.277986
2022-10-28T09:48:25.868Z,9.278013
2022-10-28T09:49:25.813Z,9.278033
2022-10-28T09:50:25.795Z,9.278151
2022-10-28T09:51:25.779Z,9.278163
2022-10-28T09:52:25.779Z,9.278185
2022-10-28T09:53:25.794Z,9.278011
2022-10-28T09:54:25.761Z,9.278183
2022-10-28T09:55:25.725Z,9.278228
2022-10-28T09:56:25.788Z,9.278184
2022-10-28T09:57:25.692Z,9.278215
2022-10-28T09:58:25.721Z,9.278308
2022-10-28T09:59:25.678Z,9.278308
2022-10-28T10:00:51.532Z,9.278284
2022-10-28T10:01:25.685Z,9.278166
2022-10-28T10:02:26.700Z,9.278322
2022-10-28T10:03:25.635Z,9.278282
2022-10-28T10:04:25.603Z,9.278326
2022-10-28T10:05:25.580Z,9.278263
2022-10-28T10:06:25.657Z,9.278257
2022-10-28T10:07:25.548Z,9.278270
2022-10-28T10:08:25.566Z,9.278290
2022-10-28T10:09:25.516Z,9.278343
2022-10-28T10:10:25.506Z,9.278339
2022-10-28T10:11:25.484Z,9.278448
2022-10-28T10:12:25.598Z,9.278361
2022-10-28T10:13:25.484Z,9.278302
2022-10-28T10:14:25.444Z,9.278291
2022-10-28T10:15:25.428Z,9.278215
2022-10-28T10:16:25.400Z,9.278200
2022-10-28T10:17:25.397Z,9.278246
2022-10-28T10:18:25.398Z,9.278277
2022-10-28T10:19:25.357Z,9.278220
2022-10-28T10:20:25.337Z,9.278215
2022-10-28T10:21:25.318Z,9.278207
2022-10-28T10:22:25.319Z,9.278200
2022-10-28T10:23:25.374Z,9.278138
2022-10-28T10:24:25.299Z,9.278350
2022-10-28T10:25:25.306Z,9.278253
2022-10-28T10:26:25.246Z,9.278220
2022-10-28T10:27:25.323Z,9.278223
2022-10-28T10:28:25.243Z,9.278235
2022-10-28T10:29:25.217Z,9.278182
2022-10-28T10:30:25.207Z,9.278196
2022-10-28T10:31:25.263Z,9.278148
2022-10-28T10:32:27.076Z,9.278209
2022-10-28T10:33:25.178Z,9.278419
2022-10-28T10:34:25.139Z,9.278219
2022-10-28T10:35:25.146Z,9.278174
2022-10-28T10:36:25.138Z,9.278135
2022-10-28T10:37:25.081Z,9.278153
2022-10-28T10:38:25.115Z,9.278063
2022-10-28T10:39:25.257Z,9.278134
2022-10-28T10:40:25.075Z,9.277987
2022-10-28T10:41:25.303Z,9.278006
2022-10-28T10:42:25.000Z,9.278181
2022-10-28T10:43:25.013Z,9.278219
2022-10-28T10:44:24.975Z,9.278155
2022-10-28T10:45:24.964Z,9.278289
2022-10-28T10:46:24.968Z,9.278199
2022-10-28T10:47:24.943Z,9.278347
2022-10-28T10:48:24.956Z,9.278400
2022-10-28T10:49:24.896Z,9.278254
2022-10-28T10:50:24.959Z,9.278260
2022-10-28T10:51:24.876Z,9.278270
2022-10-28T10:52:24.868Z,9.278273
2022-10-28T10:53:24.877Z,9.278252
2022-10-28T10:54:24.833Z,9.278224
2022-10-28T10:55:24.828Z,9.278312
2022-10-28T10:56:24.791Z,9.278326
2022-10-28T10:57:24.783Z,9.278306
2022-10-28T10:58:24.792Z,9.278303
2022-10-28T10:59:24.744Z,9.278289
2022-10-28T11:00:24.754Z,9.278228
2022-10-28T11:01:24.775Z,9.278158
2022-10-28T11:02:24.828Z,9.278307
2022-10-28T11:03:24.720Z,9.278353
2022-10-28T11:04:24.670Z,9.278174
2022-10-28T11:05:27.318Z,9.278206
2022-10-28T11:06:25.641Z,9.278238
2022-10-28T11:07:24.699Z,9.278117
2022-10-28T11:08:24.633Z,9.278168
2022-10-28T11:09:24.585Z,9.278220
2022-10-28T11:10:24.583Z,9.278145
2022-10-28T11:11:24.595Z,9.278224
2022-10-28T11:12:24.545Z,9.278314
2022-10-28T11:13:24.582Z,9.278218
2022-10-28T11:14:24.505Z,9.278254
2022-10-28T11:15:24.509Z,9.278199
2022-10-28T11:16:24.560Z,9.278102
2022-10-28T11:17:24.799Z,9.278147
2022-10-28T11:18:24.471Z,9.278093
2022-10-28T11:19:24.706Z,9.278044
2022-10-28T11:20:26.351Z,9.278223
2022-10-28T11:21:25.412Z,9.278257
2022-10-28T11:22:25.619Z,9.278296
2022-10-28T11:23:24.463Z,9.278337
2022-10-28T11:24:24.399Z,9.278367
2022-10-28T11:25:24.453Z,9.278338
2022-10-28T11:26:24.478Z,9.278382
2022-10-28T11:27:24.312Z,9.278385
2022-10-28T11:28:24.328Z,9.278383
2022-10-28T11:29:24.276Z,9.278431
2022-10-28T11:30:24.257Z,9.278428
2022-10-28T11:31:24.253Z,9.278438
2022-10-28T11:32:24.227Z,9.278565
2022-10-28T11:33:30.058Z,9.278399
2022-10-28T11:34:26.212Z,9.278457
2022-10-28T11:35:24.226Z,9.278473
2022-10-28T11:36:24.182Z,9.278528
2022-10-28T11:37:24.198Z,9.278480
2022-10-28T11:38:24.237Z,9.278488
2022-10-28T11:39:26.097Z,9.278505
2022-10-28T11:40:24.137Z,9.278408
2022-10-28T11:41:24.392Z,9.278485
2022-10-28T11:42:24.143Z,9.278455
2022-10-28T11:43:24.168Z,9.278452
2022-10-28T11:44:24.038Z,9.278452
2022-10-28T11:45:25.096Z,9.278481
2022-10-28T11:46:24.093Z,9.278475